Time;durP1;ratioP1;P1;durP2;ratioP2;P2;SDS_P1;SDS_P2;PMS_P1;PMS_P2;Temp;Humidity;BMP_temperature;BMP_pressure;BME280_temperature;BME280_humidity;BME280_pressure;Samples;Min_cycle;Max_cycle;Signal;HPM_P1;HPM_P2
2023/06/17 00:02:07;;;;;;;5.85;4.28;;;;;;;;;;5055955;28;20228;-78
2023/06/17 00:04:32;;;;;;;5.78;4.93;;;;;;;;;;5054609;28;20622;-78
2023/06/17 00:06:57;;;;;;;5.10;4.03;;;;;;;;;;5054102;28;20655;-78
2023/06/17 00:09:22;;;;;;;4.78;3.75;;;;;;;;;;5060666;28;20197;-78
2023/06/17 00:11:48;;;;;;;5.35;4.05;;;;;;;;;;5058517;28;20208;-78
2023/06/17 00:14:14;;;;;;;7.78;4.28;;;;;;;;;;5055124;28;20177;-78
2023/06/17 00:16:43;;;;;;;7.32;3.80;;;;;;;;;;5055762;28;20190;-77
2023/06/17 00:19:13;;;;;;;5.35;4.18;;;;;;;;;;5057414;22;20242;-69
2023/06/17 00:21:39;;;;;;;3.65;3.25;;;;;;;;;;5051303;28;20201;-69
2023/06/17 00:24:05;;;;;;;4.18;3.78;;;;;;;;;;5038372;28;20197;-69
2023/06/17 00:26:30;;;;;;;4.80;4.22;;;;;;;;;;5053938;28;20201;-69
2023/06/17 00:28:55;;;;;;;4.68;3.97;;;;;;;;;;5048306;28;20206;-70
2023/06/17 00:31:20;;;;;;;5.32;3.80;;;;;;;;;;5031267;28;20257;-69
2023/06/17 00:33:45;;;;;;;6.28;4.22;;;;;;;;;;5044179;28;20572;-69
2023/06/17 00:36:11;;;;;;;5.13;4.03;;;;;;;;;;5030939;28;20662;-69
2023/06/17 00:38:36;;;;;;;4.72;3.80;;;;;;;;;;5026318;28;20187;-68
2023/06/17 00:41:01;;;;;;;6.40;4.15;;;;;;;;;;5031962;28;20198;-69
2023/06/17 00:43:26;;;;;;;5.72;4.20;;;;;;;;;;5027444;28;20190;-71
2023/06/17 00:45:51;;;;;;;6.00;4.20;;;;;;;;;;5025115;28;20267;-70
2023/06/17 00:48:17;;;;;;;4.90;3.88;;;;;;;;;;5026293;28;20227;-70
2023/06/17 00:50:44;;;;;;;4.93;3.97;;;;;;;;;;5022390;28;20285;-70
2023/06/17 00:53:09;;;;;;;3.85;3.33;;;;;;;;;;5027788;28;20178;-70
2023/06/17 00:55:34;;;;;;;4.60;3.30;;;;;;;;;;5028257;28;20457;-70
2023/06/17 00:58:00;;;;;;;4.53;3.78;;;;;;;;;;5031150;28;20175;-70
2023/06/17 01:00:25;;;;;;;5.70;4.20;;;;;;;;;;5017312;28;20690;-70
2023/06/17 01:02:50;;;;;;;4.47;3.70;;;;;;;;;;5031266;28;20242;-70
2023/06/17 01:05:16;;;;;;;4.38;3.80;;;;;;;;;;5027624;28;20228;-70
2023/06/17 01:07:50;;;;;;;4.57;3.90;;;;;;;;;;5046233;28;20183;-70
2023/06/17 01:10:27;;;;;;;5.40;4.28;;;;;;;;;;5029367;28;20217;-71
2023/06/17 01:12:53;;;;;;;4.43;3.85;;;;;;;;;;5030738;28;20199;-70
2023/06/17 01:15:19;;;;;;;4.80;3.90;;;;;;;;;;5032460;28;20193;-70
2023/06/17 01:17:46;;;;;;;5.88;3.67;;;;;;;;;;5030629;28;20179;-70
2023/06/17 01:20:15;;;;;;;4.53;3.90;;;;;;;;;;5028287;28;20210;-70
2023/06/17 01:22:41;;;;;;;4.97;3.83;;;;;;;;;;5024109;28;20210;-70
2023/06/17 01:25:06;;;;;;;5.90;3.95;;;;;;;;;;5026729;28;20207;-70
2023/06/17 01:27:33;;;;;;;5.22;4.20;;;;;;;;;;5028239;28;20553;-70
2023/06/17 01:29:59;;;;;;;4.63;3.95;;;;;;;;;;5033266;28;20214;-70
2023/06/17 01:32:24;;;;;;;8.00;5.22;;;;;;;;;;5031429;28;20250;-70
2023/06/17 01:34:56;;;;;;;5.00;3.75;;;;;;;;;;5047107;28;20604;-70
2023/06/17 01:37:33;;;;;;;5.30;3.55;;;;;;;;;;5030714;28;20568;-70
2023/06/17 01:40:00;;;;;;;5.00;3.92;;;;;;;;;;5031869;28;20198;-70
2023/06/17 01:42:34;;;;;;;5.28;4.05;;;;;;;;;;5033774;28;20293;-70
2023/06/17 01:45:01;;;;;;;5.00;3.75;;;;;;;;;;5032959;28;20677;-70
2023/06/17 01:47:26;;;;;;;8.75;3.90;;;;;;;;;;5031003;28;20174;-70
2023/06/17 01:49:51;;;;;;;5.03;4.28;;;;;;;;;;5032042;28;20202;-70
2023/06/17 01:52:17;;;;;;;6.22;3.50;;;;;;;;;;5030470;28;20185;-71
2023/06/17 01:54:42;;;;;;;4.57;3.78;;;;;;;;;;5029131;28;20174;-69
2023/06/17 01:57:07;;;;;;;5.40;4.07;;;;;;;;;;5024086;28;20186;-69
2023/06/17 01:59:32;;;;;;;6.85;4.38;;;;;;;;;;5021452;28;20582;-69
2023/06/17 02:01:58;;;;;;;6.03;4.40;;;;;;;;;;5027388;28;20566;-71
2023/06/17 02:04:23;;;;;;;5.00;4.03;;;;;;;;;;5032610;28;20198;-70
2023/06/17 02:06:48;;;;;;;7.43;4.68;;;;;;;;;;5030343;28;20422;-69
2023/06/17 02:09:14;;;;;;;4.80;3.75;;;;;;;;;;5025285;28;20198;-69
2023/06/17 02:11:39;;;;;;;6.88;4.50;;;;;;;;;;5023267;28;20186;-69
2023/06/17 02:14:04;;;;;;;8.30;5.30;;;;;;;;;;5027560;28;20297;-70
2023/06/17 02:16:30;;;;;;;8.20;6.20;;;;;;;;;;5028261;28;20181;-69
2023/06/17 02:18:55;;;;;;;9.32;6.88;;;;;;;;;;5023271;28;20624;-69
2023/06/17 02:21:20;;;;;;;8.05;6.38;;;;;;;;;;5030915;28;20206;-69
2023/06/17 02:23:48;;;;;;;10.60;6.20;;;;;;;;;;5029374;28;20657;-69
2023/06/17 02:26:15;;;;;;;12.68;8.10;;;;;;;;;;5025665;28;20217;-69
2023/06/17 02:28:42;;;;;;;15.57;9.43;;;;;;;;;;5028799;28;20198;-69
2023/06/17 02:31:07;;;;;;;9.57;8.03;;;;;;;;;;5037202;28;20178;-69
2023/06/17 02:33:33;;;;;;;8.23;6.78;;;;;;;;;;5031386;28;20178;-69
2023/06/17 02:35:58;;;;;;;8.00;5.80;;;;;;;;;;5025847;28;20700;-69
2023/06/17 02:38:24;;;;;;;7.10;5.77;;;;;;;;;;5035656;28;20269;-69
2023/06/17 02:40:49;;;;;;;6.70;5.13;;;;;;;;;;5025673;28;20280;-69
2023/06/17 02:43:14;;;;;;;8.70;6.43;;;;;;;;;;5028601;28;20280;-69
2023/06/17 02:45:40;;;;;;;8.67;6.23;;;;;;;;;;5020523;28;20587;-70
2023/06/17 02:48:05;;;;;;;9.57;6.77;;;;;;;;;;5034846;28;20189;-70
2023/06/17 02:50:30;;;;;;;7.70;6.60;;;;;;;;;;5031061;28;20285;-70
2023/06/17 02:52:55;;;;;;;7.60;6.00;;;;;;;;;;5035422;28;20273;-70
2023/06/17 02:55:25;;;;;;;8.10;6.17;;;;;;;;;;5018157;28;20174;-70
2023/06/17 02:57:50;;;;;;;7.30;5.97;;;;;;;;;;5029746;28;20190;-70
2023/06/17 03:00:16;;;;;;;7.60;6.20;;;;;;;;;;5027148;28;20719;-70
2023/06/17 03:02:41;;;;;;;11.67;7.83;;;;;;;;;;5028898;28;20206;-70
2023/06/17 03:05:07;;;;;;;11.20;8.20;;;;;;;;;;5030340;28;20182;-71
2023/06/17 03:07:36;;;;;;;12.03;9.00;;;;;;;;;;5028947;28;20224;-70
2023/06/17 03:10:02;;;;;;;13.07;9.03;;;;;;;;;;5025524;28;20252;-70
2023/06/17 03:12:27;;;;;;;13.10;9.40;;;;;;;;;;5039602;28;20190;-70
2023/06/17 03:14:53;;;;;;;11.90;9.07;;;;;;;;;;5027522;28;20675;-70
2023/06/17 03:17:18;;;;;;;12.70;9.47;;;;;;;;;;5026442;28;20190;-70
2023/06/17 03:19:44;;;;;;;13.60;10.67;;;;;;;;;;5028968;28;20728;-70
2023/06/17 03:22:09;;;;;;;13.60;9.87;;;;;;;;;;5030169;28;20787;-70
2023/06/17 03:24:35;;;;;;;12.87;10.13;;;;;;;;;;5035743;28;20186;-70
2023/06/17 03:27:00;;;;;;;14.50;10.37;;;;;;;;;;5027100;28;20225;-69
2023/06/17 03:29:25;;;;;;;11.27;9.60;;;;;;;;;;5025837;28;20688;-70
2023/06/17 03:31:51;;;;;;;13.73;9.73;;;;;;;;;;5025745;28;20183;-69
2023/06/17 03:34:16;;;;;;;11.70;9.93;;;;;;;;;;5027408;28;20223;-69
2023/06/17 03:36:41;;;;;;;16.63;10.20;;;;;;;;;;5029269;28;20184;-70
2023/06/17 03:39:07;;;;;;;14.97;10.63;;;;;;;;;;5029315;28;20252;-69
2023/06/17 03:41:32;;;;;;;14.03;9.70;;;;;;;;;;5024092;28;20692;-70
2023/06/17 03:43:57;;;;;;;15.97;11.37;;;;;;;;;;5025366;28;20272;-69
2023/06/17 03:46:22;;;;;;;16.13;11.37;;;;;;;;;;5020818;28;20178;-70
2023/06/17 03:48:47;;;;;;;13.97;10.93;;;;;;;;;;5021555;28;20187;-69
2023/06/17 03:51:13;;;;;;;12.93;10.60;;;;;;;;;;5027633;28;20194;-69
2023/06/17 03:53:38;;;;;;;13.53;10.27;;;;;;;;;;5030529;28;20178;-69
2023/06/17 03:56:03;;;;;;;16.70;10.13;;;;;;;;;;5028388;28;20229;-69
2023/06/17 03:58:28;;;;;;;20.37;12.57;;;;;;;;;;5028662;28;20305;-70
2023/06/17 04:00:54;;;;;;;13.05;10.63;;;;;;;;;;5025379;28;20200;-70
2023/06/17 04:03:19;;;;;;;15.80;11.05;;;;;;;;;;5031238;28;20512;-69
2023/06/17 04:05:44;;;;;;;22.05;10.77;;;;;;;;;;5019852;28;20581;-69
2023/06/17 04:08:10;;;;;;;14.75;10.82;;;;;;;;;;5029143;28;20254;-69
2023/06/17 04:10:35;;;;;;;15.75;11.07;;;;;;;;;;5030917;28;20288;-69
2023/06/17 04:13:01;;;;;;;13.77;10.63;;;;;;;;;;5031791;28;20666;-69
2023/06/17 04:15:26;;;;;;;18.13;11.40;;;;;;;;;;5031410;28;20186;-69
2023/06/17 04:17:51;;;;;;;16.70;12.85;;;;;;;;;;5027126;28;20236;-69
2023/06/17 04:20:16;;;;;;;17.20;11.18;;;;;;;;;;5034227;28;20212;-69
2023/06/17 04:22:42;;;;;;;18.83;12.25;;;;;;;;;;5033196;28;20723;-69
2023/06/17 04:25:09;;;;;;;19.30;11.68;;;;;;;;;;5032623;28;20182;-69
2023/06/17 04:27:36;;;;;;;15.10;11.48;;;;;;;;;;5028204;28;20179;-70
2023/06/17 04:30:01;;;;;;;15.82;10.85;;;;;;;;;;5031183;28;20197;-69
2023/06/17 04:32:27;;;;;;;16.05;11.13;;;;;;;;;;5031927;28;20561;-69
2023/06/17 04:34:52;;;;;;;13.82;10.90;;;;;;;;;;5030935;28;20186;-70
2023/06/17 04:37:18;;;;;;;15.93;11.77;;;;;;;;;;5032796;28;20264;-70
2023/06/17 04:39:43;;;;;;;17.85;11.90;;;;;;;;;;5032399;28;20209;-70
2023/06/17 04:42:09;;;;;;;13.82;10.90;;;;;;;;;;5029579;28;20194;-70
2023/06/17 04:44:36;;;;;;;16.80;11.60;;;;;;;;;;5032325;28;20182;-70
2023/06/17 04:47:02;;;;;;;13.88;10.68;;;;;;;;;;5030100;28;20183;-70
2023/06/17 04:49:27;;;;;;;13.32;11.10;;;;;;;;;;5035895;28;20197;-69
2023/06/17 04:51:52;;;;;;;13.75;11.55;;;;;;;;;;5029290;28;20185;-69
2023/06/17 04:54:18;;;;;;;16.23;11.93;;;;;;;;;;5035048;28;20184;-69
2023/06/17 04:56:43;;;;;;;15.98;11.02;;;;;;;;;;5037767;28;20653;-70
2023/06/17 04:59:08;;;;;;;14.18;11.85;;;;;;;;;;5031021;28;20254;-70
2023/06/17 05:01:34;;;;;;;16.70;11.70;;;;;;;;;;5029265;28;20293;-70
2023/06/17 05:03:59;;;;;;;17.35;12.35;;;;;;;;;;5030458;28;20190;-70
2023/06/17 05:06:24;;;;;;;13.73;10.38;;;;;;;;;;5026029;28;20265;-70
2023/06/17 05:08:50;;;;;;;18.38;11.77;;;;;;;;;;5028780;28;20206;-69
2023/06/17 05:11:15;;;;;;;11.85;10.20;;;;;;;;;;5030221;28;20229;-70
2023/06/17 05:13:40;;;;;;;10.75;9.65;;;;;;;;;;5031881;28;20185;-69
2023/06/17 05:16:05;;;;;;;13.32;10.02;;;;;;;;;;5031491;28;20295;-69
2023/06/17 05:18:30;;;;;;;11.13;9.57;;;;;;;;;;5020815;28;20171;-69
2023/06/17 05:20:56;;;;;;;14.73;8.63;;;;;;;;;;5031480;28;20198;-69
2023/06/17 05:23:21;;;;;;;13.90;9.73;;;;;;;;;;5029485;28;20774;-70
2023/06/17 05:25:46;;;;;;;12.48;9.43;;;;;;;;;;5030016;28;20213;-70
2023/06/17 05:28:12;;;;;;;11.10;9.93;;;;;;;;;;5031521;28;20547;-69
2023/06/17 05:30:39;;;;;;;12.60;8.93;;;;;;;;;;5029991;28;20199;-71
2023/06/17 05:33:05;;;;;;;9.65;8.35;;;;;;;;;;5031509;28;20178;-71
2023/06/17 05:35:30;;;;;;;9.55;7.93;;;;;;;;;;5032149;28;20171;-71
2023/06/17 05:37:55;;;;;;;9.25;8.05;;;;;;;;;;5029841;28;20174;-69
2023/06/17 05:40:20;;;;;;;9.55;7.35;;;;;;;;;;5029312;28;20559;-69
2023/06/17 05:42:45;;;;;;;8.93;7.10;;;;;;;;;;5027991;28;20588;-69
2023/06/17 05:45:11;;;;;;;9.00;8.05;;;;;;;;;;5031368;28;20206;-69
2023/06/17 05:47:36;;;;;;;11.07;7.53;;;;;;;;;;5029952;28;20224;-69
2023/06/17 05:50:01;;;;;;;7.82;6.93;;;;;;;;;;5031458;28;20241;-69
2023/06/17 05:52:26;;;;;;;11.02;8.05;;;;;;;;;;5025395;28;20644;-69
2023/06/17 05:54:51;;;;;;;10.68;6.70;;;;;;;;;;5029565;28;20308;-69
2023/06/17 05:57:17;;;;;;;9.60;7.20;;;;;;;;;;5030030;28;20181;-69
2023/06/17 05:59:42;;;;;;;7.10;6.10;;;;;;;;;;5031363;28;20226;-69
2023/06/17 06:02:07;;;;;;;7.32;6.35;;;;;;;;;;5025176;28;20276;-69
2023/06/17 06:04:32;;;;;;;8.07;5.88;;;;;;;;;;5032076;28;20627;-69
2023/06/17 06:06:57;;;;;;;7.55;6.13;;;;;;;;;;5027269;28;20198;-69
2023/06/17 06:09:23;;;;;;;9.20;6.15;;;;;;;;;;5030690;28;20205;-69
2023/06/17 06:11:48;;;;;;;6.18;5.05;;;;;;;;;;5028181;28;20256;-70
2023/06/17 06:14:14;;;;;;;6.45;5.75;;;;;;;;;;5028340;28;20178;-70
2023/06/17 06:16:39;;;;;;;7.25;6.35;;;;;;;;;;5029269;28;20640;-70
2023/06/17 06:19:04;;;;;;;8.85;5.55;;;;;;;;;;5027178;28;20206;-70
2023/06/17 06:21:29;;;;;;;7.97;6.13;;;;;;;;;;5028589;28;20625;-70
2023/06/17 06:23:54;;;;;;;9.07;5.45;;;;;;;;;;5025578;28;20182;-70
2023/06/17 06:26:20;;;;;;;8.38;5.63;;;;;;;;;;5026094;28;20616;-71
2023/06/17 06:28:45;;;;;;;8.63;5.95;;;;;;;;;;5024377;28;20628;-70
2023/06/17 06:31:10;;;;;;;6.47;5.20;;;;;;;;;;5029099;28;20213;-71
2023/06/17 06:33:35;;;;;;;7.50;5.10;;;;;;;;;;5024317;28;21005;-70
2023/06/17 06:36:01;;;;;;;5.40;4.63;;;;;;;;;;5026170;28;20323;-72
2023/06/17 06:38:26;;;;;;;7.30;5.20;;;;;;;;;;5028277;28;20177;-71
2023/06/17 06:40:51;;;;;;;5.28;4.13;;;;;;;;;;5027405;28;20194;-70
2023/06/17 06:43:16;;;;;;;5.07;4.57;;;;;;;;;;5028785;28;20193;-70
2023/06/17 06:45:41;;;;;;;7.85;5.70;;;;;;;;;;5035212;28;20666;-70
2023/06/17 06:48:07;;;;;;;4.13;3.47;;;;;;;;;;5033701;28;20535;-70
2023/06/17 06:50:33;;;;;;;4.87;3.77;;;;;;;;;;5039358;28;20462;-71
2023/06/17 06:52:58;;;;;;;4.63;4.13;;;;;;;;;;5034122;28;20439;-70
2023/06/17 06:55:23;;;;;;;5.67;4.40;;;;;;;;;;5024180;28;20244;-70
2023/06/17 06:57:48;;;;;;;7.10;4.53;;;;;;;;;;5027308;28;20780;-70
2023/06/17 07:00:14;;;;;;;5.47;4.47;;;;;;;;;;5032512;28;20248;-70
2023/06/17 07:02:39;;;;;;;4.97;3.67;;;;;;;;;;5024648;28;20229;-71
2023/06/17 07:05:05;;;;;;;5.10;3.83;;;;;;;;;;5026326;28;20170;-70
2023/06/17 07:07:30;;;;;;;5.25;4.38;;;;;;;;;;5030045;28;20167;-70
2023/06/17 07:09:55;;;;;;;6.60;4.28;;;;;;;;;;5042144;28;20663;-70
2023/06/17 07:12:21;;;;;;;5.03;3.90;;;;;;;;;;5024404;28;20602;-70
2023/06/17 07:14:46;;;;;;;5.40;3.87;;;;;;;;;;5023919;28;20201;-71
2023/06/17 07:17:11;;;;;;;4.63;3.80;;;;;;;;;;5025767;28;20470;-70
2023/06/17 07:19:36;;;;;;;7.07;4.45;;;;;;;;;;5026937;28;20458;-70
2023/06/17 07:22:01;;;;;;;6.83;4.37;;;;;;;;;;5026247;28;20222;-70
2023/06/17 07:24:27;;;;;;;4.80;4.30;;;;;;;;;;5029584;28;20444;-71
2023/06/17 07:26:52;;;;;;;4.90;3.60;;;;;;;;;;5021696;28;20257;-70
2023/06/17 07:29:17;;;;;;;8.60;4.47;;;;;;;;;;5023054;28;20561;-71
2023/06/17 07:31:42;;;;;;;7.32;4.20;;;;;;;;;;5037923;28;20435;-71
2023/06/17 07:34:07;;;;;;;6.38;4.65;;;;;;;;;;5029368;28;20178;-71
2023/06/17 07:36:33;;;;;;;5.18;4.35;;;;;;;;;;5030794;28;20572;-71
2023/06/17 07:38:58;;;;;;;5.67;4.70;;;;;;;;;;5037424;28;20198;-71
2023/06/17 07:41:24;;;;;;;5.70;4.03;;;;;;;;;;5036571;28;20489;-71
2023/06/17 07:43:49;;;;;;;8.02;4.65;;;;;;;;;;5029762;28;20253;-71
2023/06/17 07:46:15;;;;;;;6.68;4.70;;;;;;;;;;5036324;28;20548;-71
2023/06/17 07:48:41;;;;;;;6.47;4.63;;;;;;;;;;5033474;28;20775;-71
2023/06/17 07:51:06;;;;;;;6.45;4.30;;;;;;;;;;5034155;28;20170;-71
2023/06/17 07:53:31;;;;;;;5.68;4.20;;;;;;;;;;5040204;28;20178;-71
2023/06/17 07:55:56;;;;;;;5.78;4.00;;;;;;;;;;5037995;28;20538;-71
2023/06/17 07:58:21;;;;;;;4.87;3.50;;;;;;;;;;5039994;28;20225;-71
2023/06/17 08:00:47;;;;;;;5.80;4.20;;;;;;;;;;5034140;28;20493;-71
2023/06/17 08:03:12;;;;;;;4.38;3.97;;;;;;;;;;5023322;28;20182;-71
2023/06/17 08:05:37;;;;;;;5.03;4.03;;;;;;;;;;5036529;28;20249;-71
2023/06/17 08:08:03;;;;;;;5.63;3.95;;;;;;;;;;5037493;28;20190;-71
2023/06/17 08:10:28;;;;;;;4.68;4.00;;;;;;;;;;5032063;28;20194;-71
2023/06/17 08:12:53;;;;;;;8.77;4.20;;;;;;;;;;5034028;28;20175;-71
2023/06/17 08:15:19;;;;;;;4.07;3.63;;;;;;;;;;5031746;28;20446;-71
2023/06/17 08:17:44;;;;;;;4.03;3.50;;;;;;;;;;5032970;28;20415;-71
2023/06/17 08:20:10;;;;;;;5.68;4.43;;;;;;;;;;5033719;28;20700;-71
2023/06/17 08:22:36;;;;;;;4.70;4.05;;;;;;;;;;5036036;28;20243;-71
2023/06/17 08:25:01;;;;;;;6.57;3.95;;;;;;;;;;5033642;28;20257;-71
2023/06/17 08:27:27;;;;;;;4.50;4.10;;;;;;;;;;5031698;28;20182;-71
2023/06/17 08:29:52;;;;;;;4.97;3.92;;;;;;;;;;5032222;28;20208;-71
2023/06/17 08:32:17;;;;;;;6.37;3.83;;;;;;;;;;5028830;28;20628;-71
2023/06/17 08:34:42;;;;;;;6.90;3.57;;;;;;;;;;5034061;28;20423;-71
2023/06/17 08:37:08;;;;;;;5.17;3.87;;;;;;;;;;5030993;28;20429;-71
2023/06/17 08:39:38;;;;;;;6.10;4.03;;;;;;;;;;5031580;28;20451;-71
2023/06/17 08:42:04;;;;;;;5.50;4.38;;;;;;;;;;5032462;28;20965;-71
2023/06/17 08:44:31;;;;;;;7.60;4.50;;;;;;;;;;5032973;28;20241;-71
2023/06/17 08:46:57;;;;;;;5.80;4.00;;;;;;;;;;5032973;28;20740;-71
2023/06/17 08:49:23;;;;;;;4.35;3.53;;;;;;;;;;5032828;28;20281;-71
2023/06/17 08:51:48;;;;;;;4.15;3.45;;;;;;;;;;5039757;28;20174;-71
2023/06/17 08:54:14;;;;;;;3.65;3.05;;;;;;;;;;5034683;28;20186;-71
2023/06/17 08:56:40;;;;;;;5.53;3.95;;;;;;;;;;5046657;28;20174;-71
2023/06/17 08:59:05;;;;;;;4.38;3.83;;;;;;;;;;5036119;28;20305;-71
2023/06/17 09:01:31;;;;;;;4.13;3.23;;;;;;;;;;5030883;28;20198;-71
2023/06/17 09:03:56;;;;;;;3.53;3.20;;;;;;;;;;5038210;28;20407;-71
2023/06/17 09:06:21;;;;;;;4.35;3.42;;;;;;;;;;5032830;28;20174;-71
2023/06/17 09:08:48;;;;;;;3.75;3.42;;;;;;;;;;5037303;28;20191;-71
2023/06/17 09:11:13;;;;;;;4.65;3.58;;;;;;;;;;5025956;28;20209;-71
2023/06/17 09:13:38;;;;;;;6.22;3.25;;;;;;;;;;5031562;28;20177;-70
2023/06/17 09:16:04;;;;;;;3.63;3.33;;;;;;;;;;5033405;28;20174;-71
2023/06/17 09:18:33;;;;;;;3.40;3.10;;;;;;;;;;5037538;28;20412;-70
2023/06/17 09:20:58;;;;;;;7.55;3.03;;;;;;;;;;5037221;28;20255;-71
2023/06/17 09:23:23;;;;;;;3.87;2.97;;;;;;;;;;5040379;28;20181;-71
2023/06/17 09:25:58;;;;;;;5.00;2.57;;;;;;;;;;5031404;28;20419;-71
2023/06/17 09:28:24;;;;;;;3.80;2.58;;;;;;;;;;5036935;28;20437;-71
2023/06/17 09:30:53;;;;;;;3.80;2.92;;;;;;;;;;5036794;28;20670;-71
2023/06/17 09:33:22;;;;;;;3.70;2.78;;;;;;;;;;5029026;28;20178;-71
2023/06/17 09:35:57;;;;;;;3.92;2.83;;;;;;;;;;5025281;28;20555;-71
2023/06/17 09:38:22;;;;;;;3.70;3.03;;;;;;;;;;5027988;28;20182;-72
2023/06/17 09:40:48;;;;;;;4.07;3.40;;;;;;;;;;5030714;28;20182;-72
2023/06/17 09:43:14;;;;;;;4.18;3.10;;;;;;;;;;5037946;28;20458;-72
2023/06/17 09:45:39;;;;;;;3.23;2.83;;;;;;;;;;5035945;28;20206;-71
2023/06/17 09:48:04;;;;;;;6.07;3.42;;;;;;;;;;5022006;28;20428;-72
2023/06/17 09:50:32;;;;;;;7.55;3.20;;;;;;;;;;5031384;28;20656;-72
2023/06/17 09:52:58;;;;;;;4.10;3.38;;;;;;;;;;5039173;28;20536;-71
2023/06/17 09:55:23;;;;;;;3.63;3.13;;;;;;;;;;5033164;28;20209;-72
2023/06/17 09:57:55;;;;;;;5.55;2.80;;;;;;;;;;5040740;28;20202;-72
2023/06/17 10:00:24;;;;;;;6.78;3.25;;;;;;;;;;5026283;28;22460;-72
2023/06/17 10:02:50;;;;;;;5.05;3.00;;;;;;;;;;5032394;28;20568;-71
2023/06/17 10:05:16;;;;;;;4.68;3.08;;;;;;;;;;5033919;28;20194;-71
2023/06/17 10:07:42;;;;;;;2.88;2.65;;;;;;;;;;5025552;28;20214;-72
2023/06/17 10:10:09;;;;;;;3.90;3.20;;;;;;;;;;5038397;28;20663;-71
2023/06/17 10:12:36;;;;;;;4.20;3.47;;;;;;;;;;5033753;28;20274;-71
2023/06/17 10:15:01;;;;;;;4.22;3.03;;;;;;;;;;5026716;28;20174;-71
2023/06/17 10:17:28;;;;;;;4.88;3.15;;;;;;;;;;5027314;28;20265;-70
2023/06/17 10:19:53;;;;;;;5.22;2.78;;;;;;;;;;5029075;28;20244;-70
2023/06/17 10:22:20;;;;;;;3.22;2.72;;;;;;;;;;5027658;28;20209;-71
2023/06/17 10:24:46;;;;;;;4.68;2.88;;;;;;;;;;5042840;28;20564;-71
2023/06/17 10:27:11;;;;;;;3.75;2.78;;;;;;;;;;5027947;28;20643;-70
2023/06/17 10:29:41;;;;;;;5.68;3.30;;;;;;;;;;5030859;28;20271;-71
2023/06/17 10:32:19;;;;;;;4.45;2.72;;;;;;;;;;5046052;28;20253;-70
2023/06/17 10:35:04;;;;;;;4.07;3.67;;;;;;;;;;5031873;28;20165;-70
2023/06/17 10:37:29;;;;;;;4.72;2.70;;;;;;;;;;5041149;28;20706;-70
2023/06/17 10:39:54;;;;;;;3.90;2.50;;;;;;;;;;5051407;28;20233;-70
2023/06/17 10:42:24;;;;;;;3.80;3.00;;;;;;;;;;5029727;28;20239;-70
2023/06/17 10:44:49;;;;;;;6.03;2.88;;;;;;;;;;5037779;28;20178;-70
2023/06/17 10:47:17;;;;;;;6.03;3.13;;;;;;;;;;5031251;28;20270;-70
2023/06/17 10:49:43;;;;;;;5.60;3.13;;;;;;;;;;5033974;28;20709;-70
2023/06/17 10:52:12;;;;;;;3.33;3.03;;;;;;;;;;5032274;28;20181;-70
2023/06/17 10:54:42;;;;;;;5.18;3.20;;;;;;;;;;5025633;28;20647;-71
2023/06/17 10:57:08;;;;;;;4.60;2.58;;;;;;;;;;5022388;28;20208;-71
2023/06/17 10:59:33;;;;;;;3.97;2.40;;;;;;;;;;5025049;28;20229;-70
2023/06/17 11:02:02;;;;;;;3.75;3.20;;;;;;;;;;5025331;28;20608;-69
2023/06/17 11:04:30;;;;;;;3.63;3.00;;;;;;;;;;5027016;28;20260;-70
2023/06/17 11:06:57;;;;;;;3.53;2.97;;;;;;;;;;5029075;28;20647;-70
2023/06/17 11:09:25;;;;;;;3.80;2.88;;;;;;;;;;5029934;28;20664;-71
2023/06/17 11:11:51;;;;;;;4.32;2.83;;;;;;;;;;5031228;28;20208;-70
2023/06/17 11:14:19;;;;;;;3.47;3.17;;;;;;;;;;5028883;28;20201;-71
2023/06/17 11:16:44;;;;;;;3.63;2.90;;;;;;;;;;5030062;28;20185;-70
2023/06/17 11:19:10;;;;;;;6.93;2.95;;;;;;;;;;5029352;28;20213;-70
2023/06/17 11:21:37;;;;;;;4.23;2.60;;;;;;;;;;5028876;28;20240;-70
2023/06/17 11:24:02;;;;;;;3.13;2.63;;;;;;;;;;5030654;28;20395;-71
2023/06/17 11:26:27;;;;;;;7.53;2.97;;;;;;;;;;5030462;28;20185;-70
2023/06/17 11:28:52;;;;;;;5.73;2.63;;;;;;;;;;5030124;28;20196;-71
2023/06/17 11:31:18;;;;;;;2.97;2.73;;;;;;;;;;5028808;28;20552;-70
2023/06/17 11:33:43;;;;;;;4.03;2.70;;;;;;;;;;5030385;28;20446;-70
2023/06/17 11:36:13;;;;;;;4.25;2.63;;;;;;;;;;5028010;28;20655;-70
2023/06/17 11:38:38;;;;;;;3.88;2.53;;;;;;;;;;5026590;28;20193;-71
2023/06/17 11:41:04;;;;;;;4.03;2.45;;;;;;;;;;5029295;28;20181;-69
2023/06/17 11:43:29;;;;;;;4.32;2.83;;;;;;;;;;5028702;28;20640;-71
2023/06/17 11:45:58;;;;;;;4.32;2.85;;;;;;;;;;5045485;28;20605;-71
2023/06/17 11:48:27;;;;;;;3.28;2.70;;;;;;;;;;5029463;28;20682;-70
2023/06/17 11:50:53;;;;;;;2.95;2.60;;;;;;;;;;5026533;28;20174;-70
2023/06/17 11:53:27;;;;;;;2.95;2.72;;;;;;;;;;5029440;28;20170;-70
2023/06/17 11:55:52;;;;;;;3.78;2.55;;;;;;;;;;5026886;28;20684;-69
2023/06/17 11:58:18;;;;;;;2.47;2.15;;;;;;;;;;5040182;28;20209;-70
2023/06/17 12:00:44;;;;;;;4.03;2.78;;;;;;;;;;5027986;28;20201;-70
2023/06/17 12:03:09;;;;;;;4.75;2.65;;;;;;;;;;5029006;28;20202;-70
2023/06/17 12:05:36;;;;;;;4.50;2.20;;;;;;;;;;5030115;28;20182;-71
2023/06/17 12:08:01;;;;;;;4.63;2.30;;;;;;;;;;5024623;28;20480;-71
2023/06/17 12:10:26;;;;;;;2.93;2.43;;;;;;;;;;5036954;28;20197;-71
2023/06/17 12:12:58;;;;;;;2.60;2.10;;;;;;;;;;5032340;28;20411;-71
2023/06/17 12:15:28;;;;;;;4.60;1.88;;;;;;;;;;5028461;28;20182;-70
2023/06/17 12:17:54;;;;;;;1.80;1.70;;;;;;;;;;5026587;28;20234;-70
2023/06/17 12:20:19;;;;;;;3.47;2.60;;;;;;;;;;5054933;22;20367;-72
2023/06/17 12:22:46;;;;;;;3.63;2.13;;;;;;;;;;5053744;28;20245;-72
2023/06/17 12:25:11;;;;;;;3.67;2.15;;;;;;;;;;5053717;28;20639;-71
2023/06/17 12:27:37;;;;;;;3.60;2.28;;;;;;;;;;5056958;28;20219;-72
2023/06/17 12:30:04;;;;;;;3.80;2.50;;;;;;;;;;5045520;28;20207;-71
2023/06/17 12:32:29;;;;;;;3.80;2.33;;;;;;;;;;5035921;28;20581;-71
2023/06/17 12:34:55;;;;;;;3.42;2.08;;;;;;;;;;5051833;28;20251;-71
2023/06/17 12:37:23;;;;;;;3.03;2.10;;;;;;;;;;5048313;28;20268;-72
2023/06/17 12:39:48;;;;;;;3.20;2.03;;;;;;;;;;5048718;28;20200;-71
2023/06/17 12:42:13;;;;;;;2.20;2.00;;;;;;;;;;5033715;28;20189;-71
2023/06/17 12:44:39;;;;;;;2.05;1.77;;;;;;;;;;5046163;28;20184;-72
2023/06/17 12:47:04;;;;;;;2.33;2.13;;;;;;;;;;5049298;28;20241;-71
2023/06/17 12:49:30;;;;;;;2.20;1.88;;;;;;;;;;5057564;28;20711;-71
2023/06/17 12:51:55;;;;;;;2.90;1.97;;;;;;;;;;5051090;28;20173;-71
2023/06/17 12:54:20;;;;;;;3.53;1.63;;;;;;;;;;5041363;28;20486;-71
2023/06/17 12:56:45;;;;;;;3.77;2.60;;;;;;;;;;5060932;28;20574;-71
2023/06/17 12:59:10;;;;;;;4.10;2.10;;;;;;;;;;5053191;28;20204;-72
2023/06/17 13:01:36;;;;;;;2.23;2.03;;;;;;;;;;5050526;28;20193;-71
2023/06/17 13:04:01;;;;;;;2.20;2.00;;;;;;;;;;5053617;28;20417;-71
2023/06/17 13:06:26;;;;;;;2.63;1.93;;;;;;;;;;5050957;28;20180;-72
2023/06/17 13:08:51;;;;;;;2.73;2.03;;;;;;;;;;5025642;28;20557;-71
2023/06/17 13:11:16;;;;;;;4.60;2.15;;;;;;;;;;5052485;28;20646;-72
2023/06/17 13:13:42;;;;;;;2.57;2.20;;;;;;;;;;5051379;28;20270;-70
2023/06/17 13:16:07;;;;;;;3.03;2.25;;;;;;;;;;5036766;28;20185;-71
2023/06/17 13:18:33;;;;;;;4.97;2.20;;;;;;;;;;5044491;28;20177;-71
2023/06/17 13:20:58;;;;;;;2.97;1.80;;;;;;;;;;5047253;28;20244;-72
2023/06/17 13:23:23;;;;;;;2.37;2.10;;;;;;;;;;5048086;28;20180;-71
2023/06/17 13:25:49;;;;;;;5.60;2.03;;;;;;;;;;5027963;28;20433;-71
2023/06/17 13:28:14;;;;;;;3.05;2.20;;;;;;;;;;5052795;28;20165;-72
2023/06/17 13:30:39;;;;;;;2.22;1.58;;;;;;;;;;5053847;28;20201;-71
2023/06/17 13:33:06;;;;;;;2.33;1.80;;;;;;;;;;5031061;28;20212;-71
2023/06/17 13:35:31;;;;;;;3.85;1.77;;;;;;;;;;5032991;28;20865;-70
2023/06/17 13:37:58;;;;;;;2.83;1.90;;;;;;;;;;5049810;28;20173;-71
2023/06/17 13:40:23;;;;;;;5.40;2.40;;;;;;;;;;5045463;28;20690;-71
2023/06/17 13:42:48;;;;;;;2.53;2.00;;;;;;;;;;5051129;28;20249;-72
2023/06/17 13:45:14;;;;;;;1.43;1.33;;;;;;;;;;5045360;28;20413;-71
2023/06/17 13:47:39;;;;;;;1.63;1.50;;;;;;;;;;5052091;28;20256;-71
2023/06/17 13:50:04;;;;;;;2.70;1.80;;;;;;;;;;5049421;28;20477;-69
2023/06/17 13:52:30;;;;;;;1.67;1.58;;;;;;;;;;5053712;28;20240;-70
2023/06/17 13:54:55;;;;;;;2.05;1.80;;;;;;;;;;5054694;28;20182;-69
2023/06/17 13:57:20;;;;;;;2.00;1.80;;;;;;;;;;5055206;28;20177;-70
2023/06/17 13:59:46;;;;;;;1.88;1.70;;;;;;;;;;5047697;28;20482;-70
2023/06/17 14:02:11;;;;;;;4.15;1.70;;;;;;;;;;5031618;28;20220;-70
2023/06/17 14:04:36;;;;;;;6.10;2.17;;;;;;;;;;5045517;28;20181;-70
2023/06/17 14:07:02;;;;;;;2.83;1.98;;;;;;;;;;5048286;28;20653;-70
2023/06/17 14:09:27;;;;;;;2.00;1.70;;;;;;;;;;5045261;28;20606;-70
2023/06/17 14:11:52;;;;;;;2.40;2.00;;;;;;;;;;5046426;28;20272;-70
2023/06/17 14:14:18;;;;;;;2.53;1.80;;;;;;;;;;5047641;28;20208;-70
2023/06/17 14:16:43;;;;;;;1.92;1.73;;;;;;;;;;5048576;28;20184;-70
2023/06/17 14:19:08;;;;;;;3.33;2.25;;;;;;;;;;5046043;28;20197;-71
2023/06/17 14:21:34;;;;;;;1.60;1.50;;;;;;;;;;5049606;28;20200;-71
2023/06/17 14:24:03;;;;;;;1.83;1.50;;;;;;;;;;5030158;28;20803;-71
2023/06/17 14:26:28;;;;;;;1.90;1.70;;;;;;;;;;5049273;28;20697;-71
2023/06/17 14:28:53;;;;;;;1.92;1.80;;;;;;;;;;5050056;28;20182;-71
2023/06/17 14:31:19;;;;;;;2.33;1.70;;;;;;;;;;5041559;28;20192;-71